Time;durP1;ratioP1;P1;durP2;ratioP2;P2;SDS_P1;SDS_P2;PMS_P1;PMS_P2;Temp;Humidity;BMP_temperature;BMP_pressure;BME280_temperature;BME280_humidity;BME280_pressure;Samples;Min_cycle;Max_cycle;Signal;HPM_P1;HPM_P2
2022/09/03 00:03:14;;;;;;;2.93;1.50;;;;;;;19.01;40.80;97740.44;8313598;28;20241;-78
2022/09/03 00:07:20;;;;;;;3.30;1.27;;;;;;;19.02;41.39;97744.72;8313807;28;20532;-78
2022/09/03 00:11:26;;;;;;;5.63;1.50;;;;;;;18.91;41.69;97742.97;8313853;28;20243;-77
2022/09/03 00:15:32;;;;;;;2.70;1.40;;;;;;;18.99;41.62;97741.53;8313728;28;20241;-77
2022/09/03 00:19:39;;;;;;;2.13;1.30;;;;;;;18.90;41.37;97746.53;8318110;28;20241;-77
2022/09/03 00:23:44;;;;;;;2.10;1.40;;;;;;;18.84;41.91;97752.31;8319606;28;20425;-77
2022/09/03 00:27:52;;;;;;;1.80;1.23;;;;;;;18.76;41.91;97752.06;8319148;28;20236;-78
2022/09/03 00:31:58;;;;;;;2.67;1.53;;;;;;;18.70;42.27;97745.53;8319426;28;20422;-76
2022/09/03 00:36:07;;;;;;;1.80;1.50;;;;;;;18.74;42.17;97743.50;8319350;28;20233;-77
2022/09/03 00:40:20;;;;;;;1.80;1.33;;;;;;;18.71;42.11;97747.19;8310500;28;20229;-76
2022/09/03 00:44:33;;;;;;;2.50;1.40;;;;;;;18.63;42.42;97736.50;8319129;28;20229;-77
2022/09/03 00:48:51;;;;;;;1.93;1.50;;;;;;;18.43;42.35;97745.97;8318999;28;20233;-77
2022/09/03 00:52:59;;;;;;;6.00;1.60;;;;;;;18.54;42.57;97751.19;8318629;28;20229;-76
2022/09/03 00:57:16;;;;;;;3.10;1.37;;;;;;;18.55;42.65;97747.59;8318849;28;20232;-78
2022/09/03 01:01:22;;;;;;;2.47;1.40;;;;;;;18.47;42.36;97742.16;8318402;28;20237;-76
2022/09/03 01:05:49;;;;;;;5.93;1.50;;;;;;;18.46;42.75;97740.47;8318172;28;20339;-76
2022/09/03 01:09:59;;;;;;;2.13;1.23;;;;;;;18.47;43.00;97743.94;8317738;28;20239;-77
2022/09/03 01:14:08;;;;;;;2.37;1.20;;;;;;;18.40;42.58;97746.19;8317945;28;20328;-77
2022/09/03 01:18:17;;;;;;;2.43;1.40;;;;;;;18.39;42.90;97744.56;8317989;28;20236;-77
2022/09/03 01:22:39;;;;;;;2.83;1.27;;;;;;;18.30;43.24;97753.97;8317836;28;20421;-77
2022/09/03 01:26:53;;;;;;;2.73;1.40;;;;;;;18.26;43.23;97751.69;8317579;28;20236;-77
2022/09/03 01:31:04;;;;;;;3.17;1.40;;;;;;;18.29;43.37;97746.22;8316266;28;20224;-77
2022/09/03 01:35:15;;;;;;;2.53;1.30;;;;;;;18.30;43.35;97753.97;8317532;28;20237;-77
2022/09/03 01:39:22;;;;;;;5.10;1.67;;;;;;;18.20;43.66;97753.03;8317182;28;20240;-77
2022/09/03 01:43:35;;;;;;;3.70;1.43;;;;;;;18.17;43.62;97754.09;8316927;28;20240;-77
2022/09/03 01:47:50;;;;;;;2.63;1.50;;;;;;;18.14;44.08;97750.88;8316976;28;20291;-77
2022/09/03 01:52:00;;;;;;;2.80;1.60;;;;;;;18.13;44.21;97759.72;8316649;28;20232;-77
2022/09/03 01:56:17;;;;;;;2.00;1.47;;;;;;;18.04;44.12;97758.63;8317015;28;20423;-77
2022/09/03 02:00:20;;;;;;;2.07;1.30;;;;;;;18.07;44.39;97763.66;8316634;28;20539;-76
2022/09/03 02:04:26;;;;;;;1.80;1.47;;;;;;;18.07;43.84;97760.22;8316218;28;20233;-77
2022/09/03 02:08:30;;;;;;;2.27;1.50;;;;;;;17.93;44.52;97762.13;8316566;28;20228;-77
2022/09/03 02:12:34;;;;;;;1.90;1.43;;;;;;;17.92;44.75;97757.00;8316348;28;20232;-77
2022/09/03 02:16:37;;;;;;;4.50;1.50;;;;;;;17.92;45.19;97762.22;8316166;28;20236;-77
2022/09/03 02:20:42;;;;;;;2.10;1.33;;;;;;;17.87;45.20;97757.31;8316077;28;20259;-77
2022/09/03 02:24:45;;;;;;;2.40;1.30;;;;;;;17.90;45.13;97764.97;8315848;28;20229;-77
2022/09/03 02:28:48;;;;;;;2.47;1.40;;;;;;;17.86;45.27;97760.91;8315525;28;20239;-77
2022/09/03 02:32:51;;;;;;;3.33;1.63;;;;;;;17.77;45.22;97754.56;8315598;28;20236;-77
2022/09/03 02:36:55;;;;;;;2.30;1.50;;;;;;;17.77;44.83;97757.19;8315585;28;20229;-76
2022/09/03 02:40:58;;;;;;;3.80;1.50;;;;;;;17.75;45.51;97758.25;8315015;28;20546;-77
2022/09/03 02:45:08;;;;;;;2.33;1.40;;;;;;;17.71;45.09;97757.66;8315458;28;20557;-76
2022/09/03 02:49:10;;;;;;;2.80;1.40;;;;;;;17.70;45.36;97750.72;8315645;28;20403;-77
2022/09/03 02:53:15;;;;;;;1.90;1.27;;;;;;;17.65;45.33;97750.28;8315143;28;20236;-77
2022/09/03 02:57:18;;;;;;;5.03;1.30;;;;;;;17.58;45.54;97746.44;8315179;28;20415;-77
2022/09/03 03:01:29;;;;;;;2.07;1.57;;;;;;;17.58;45.76;97743.84;8314965;28;20406;-77
2022/09/03 03:05:42;;;;;;;2.53;1.30;;;;;;;17.55;46.24;97739.69;8314596;28;20240;-76
2022/09/03 03:09:46;;;;;;;3.43;1.50;;;;;;;17.48;45.88;97737.66;8314881;28;20236;-77
2022/09/03 03:13:49;;;;;;;3.03;1.33;;;;;;;17.55;45.85;97738.81;8314424;28;20241;-76
2022/09/03 03:17:52;;;;;;;1.97;1.40;;;;;;;17.48;46.16;97730.63;8314998;28;20233;-77
2022/09/03 03:21:55;;;;;;;5.97;2.10;;;;;;;17.46;45.56;97744.75;8314340;28;20231;-77
2022/09/03 03:26:02;;;;;;;2.43;1.30;;;;;;;17.52;46.05;97746.94;8314469;28;20232;-76
2022/09/03 03:30:08;;;;;;;2.80;1.50;;;;;;;17.47;45.83;97749.06;8314364;28;20233;-76
2022/09/03 03:34:10;;;;;;;1.50;1.40;;;;;;;17.48;45.81;97745.50;8314562;28;20415;-76
2022/09/03 03:38:13;;;;;;;8.47;1.80;;;;;;;17.40;45.83;97743.44;8314450;28;20224;-76
2022/09/03 03:42:18;;;;;;;1.93;1.60;;;;;;;17.42;46.05;97749.41;8314404;28;20359;-77
2022/09/03 03:46:21;;;;;;;3.10;1.40;;;;;;;17.38;45.52;97740.09;8314162;28;20407;-76
2022/09/03 03:50:24;;;;;;;2.80;1.60;;;;;;;17.39;45.37;97728.69;8314028;28;20232;-76
2022/09/03 03:54:28;;;;;;;3.10;1.40;;;;;;;17.24;45.75;97740.31;8318421;28;20232;-76
2022/09/03 03:58:33;;;;;;;1.90;1.53;;;;;;;17.36;46.08;97745.47;8320424;28;20228;-76
2022/09/03 04:02:36;;;;;;;3.67;1.87;;;;;;;17.27;45.78;97740.06;8320048;28;20229;-76
2022/09/03 04:06:40;;;;;;;3.10;1.60;;;;;;;17.21;46.17;97733.56;8320258;28;20237;-76
2022/09/03 04:10:43;;;;;;;2.90;1.50;;;;;;;17.27;46.15;97729.59;8320228;28;20224;-76
2022/09/03 04:14:47;;;;;;;2.73;1.63;;;;;;;16.97;46.36;97728.34;8320087;28;20228;-76
2022/09/03 04:18:50;;;;;;;5.30;1.57;;;;;;;17.25;46.10;97729.75;8319654;28;20229;-76
2022/09/03 04:22:53;;;;;;;2.13;1.57;;;;;;;17.13;46.88;97738.50;8319751;28;20240;-76
2022/09/03 04:26:56;;;;;;;4.60;1.53;;;;;;;17.18;46.48;97733.75;8319698;28;20237;-76
2022/09/03 04:31:02;;;;;;;4.47;1.70;;;;;;;17.12;46.53;97735.06;8319256;28;20225;-76
2022/09/03 04:35:06;;;;;;;4.17;1.53;;;;;;;17.16;46.58;97743.50;8319371;28;20237;-76
2022/09/03 04:39:08;;;;;;;3.03;1.50;;;;;;;17.16;46.63;97744.34;8318933;28;20236;-76
2022/09/03 04:43:11;;;;;;;3.40;1.70;;;;;;;17.27;46.14;97750.53;8319166;28;20229;-76
2022/09/03 04:47:15;;;;;;;1.63;1.47;;;;;;;17.27;46.44;97743.53;8319279;28;20232;-76
2022/09/03 04:51:21;;;;;;;2.57;1.67;;;;;;;17.29;46.20;97746.88;8318822;28;20236;-77
2022/09/03 04:55:24;;;;;;;4.93;2.00;;;;;;;17.33;46.20;97745.69;8318870;28;20228;-75
2022/09/03 04:59:26;;;;;;;6.40;1.77;;;;;;;17.31;46.14;97744.97;8318837;28;20422;-76
2022/09/03 05:03:31;;;;;;;5.23;1.80;;;;;;;17.44;46.55;97763.22;8317115;28;20516;-76
2022/09/03 05:07:37;;;;;;;4.50;1.60;;;;;;;17.37;46.10;97762.84;8318436;28;20225;-76
2022/09/03 05:11:40;;;;;;;4.47;1.70;;;;;;;17.49;46.17;97761.06;8318434;28;20278;-75
2022/09/03 05:15:44;;;;;;;4.03;1.43;;;;;;;17.59;46.03;97767.28;8318158;28;20519;-76
2022/09/03 05:19:48;;;;;;;3.37;1.70;;;;;;;17.25;46.48;97765.53;8318042;28;20515;-75
2022/09/03 05:23:52;;;;;;;3.67;1.80;;;;;;;16.93;47.33;97763.53;8317359;28;20514;-77
2022/09/03 05:27:55;;;;;;;3.83;1.50;;;;;;;17.41;46.86;97762.63;8317977;28;20412;-76
2022/09/03 05:31:59;;;;;;;3.83;1.60;;;;;;;17.52;45.89;97747.75;8317979;28;20235;-77
2022/09/03 05:36:05;;;;;;;4.53;1.70;;;;;;;17.69;45.58;97756.13;8317678;28;20233;-76
2022/09/03 05:40:10;;;;;;;3.00;1.87;;;;;;;17.71;45.94;97756.84;8317503;28;20228;-76
2022/09/03 05:44:13;;;;;;;2.77;1.40;;;;;;;17.74;45.65;97767.91;8317373;28;20232;-76
2022/09/03 05:48:16;;;;;;;3.60;1.60;;;;;;;18.10;45.00;97767.81;8317186;28;20527;-77
2022/09/03 05:52:22;;;;;;;3.00;2.00;;;;;;;17.92;45.12;97768.28;8316929;28;20240;-77
2022/09/03 05:56:26;;;;;;;2.07;1.50;;;;;;;17.93;45.52;97767.34;8317152;28;20232;-76
2022/09/03 06:00:29;;;;;;;4.00;1.60;;;;;;;17.64;46.08;97777.41;8317002;28;20553;-77
2022/09/03 06:04:32;;;;;;;3.23;1.80;;;;;;;17.70;46.09;97760.38;8316246;28;20255;-76
2022/09/03 06:08:38;;;;;;;2.40;1.80;;;;;;;17.77;46.24;97764.22;8316386;28;20224;-76
2022/09/03 06:12:41;;;;;;;4.90;1.80;;;;;;;17.84;46.22;97769.78;8316369;28;20232;-76
2022/09/03 06:16:45;;;;;;;5.30;1.80;;;;;;;18.08;45.36;97782.81;8316172;28;20229;-76
2022/09/03 06:20:54;;;;;;;3.67;1.97;;;;;;;17.67;45.84;97790.28;8315767;28;20270;-76
2022/09/03 06:24:58;;;;;;;4.53;2.00;;;;;;;18.30;45.08;97787.22;8316012;28;20229;-76
2022/09/03 06:29:01;;;;;;;3.17;1.90;;;;;;;17.82;45.53;97779.56;8316126;28;20228;-76
2022/09/03 06:33:03;;;;;;;4.37;1.83;;;;;;;17.56;46.69;97774.53;8315810;28;20232;-76
2022/09/03 06:37:06;;;;;;;4.33;1.90;;;;;;;17.19;47.49;97778.16;8315927;28;20240;-76
2022/09/03 06:41:12;;;;;;;2.77;1.93;;;;;;;17.43;47.39;97781.66;8315763;28;20225;-76
2022/09/03 06:45:16;;;;;;;2.77;1.67;;;;;;;17.30;47.37;97792.19;8315640;28;20233;-76
2022/09/03 06:49:19;;;;;;;3.73;1.87;;;;;;;17.59;47.42;97792.63;8315732;28;20225;-76
2022/09/03 06:53:24;;;;;;;5.40;1.73;;;;;;;17.45;47.96;97784.97;8315417;28;20259;-76
2022/09/03 06:57:36;;;;;;;3.77;2.00;;;;;;;17.54;47.43;97786.91;8315506;28;20225;-76
2022/09/03 07:01:40;;;;;;;2.40;1.90;;;;;;;17.58;47.65;97772.63;8315315;28;20235;-76
2022/09/03 07:05:46;;;;;;;3.20;1.67;;;;;;;17.87;47.50;97769.59;8314918;28;20422;-76
2022/09/03 07:09:49;;;;;;;5.10;1.73;;;;;;;17.90;47.29;97767.56;8314619;28;20228;-76
2022/09/03 07:13:54;;;;;;;5.77;1.70;;;;;;;17.89;47.16;97768.50;8314860;28;20422;-76
2022/09/03 07:17:57;;;;;;;6.17;2.10;;;;;;;17.63;47.95;97769.66;8314823;28;20296;-76
2022/09/03 07:22:00;;;;;;;6.57;1.80;;;;;;;17.65;47.74;97759.91;8314567;28;20240;-76
2022/09/03 07:26:04;;;;;;;4.53;2.20;;;;;;;17.78;47.44;97766.72;8314756;28;20232;-76
2022/09/03 07:30:10;;;;;;;3.63;1.60;;;;;;;18.23;46.64;97762.44;8314314;28;20240;-77
2022/09/03 07:34:15;;;;;;;5.60;1.63;;;;;;;18.83;45.61;97760.28;8314825;28;20240;-77
2022/09/03 07:38:19;;;;;;;3.17;1.50;;;;;;;19.02;44.57;97772.75;8314393;28;20247;-77
2022/09/03 07:42:22;;;;;;;2.33;1.60;;;;;;;18.66;44.65;97780.00;8314619;28;20238;-78
2022/09/03 07:46:27;;;;;;;4.70;1.80;;;;;;;18.95;45.17;97775.88;8314210;28;20239;-76
2022/09/03 07:50:36;;;;;;;2.10;1.40;;;;;;;19.26;43.68;97768.09;8314467;28;20551;-78
2022/09/03 07:54:40;;;;;;;2.87;1.53;;;;;;;19.18;43.86;97764.47;8314121;28;20224;-76
2022/09/03 07:58:43;;;;;;;3.73;2.03;;;;;;;19.51;43.11;97761.66;8314662;28;20251;-76
2022/09/03 08:02:47;;;;;;;5.00;1.43;;;;;;;19.89;41.79;97769.88;8314070;28;20243;-77
2022/09/03 08:06:54;;;;;;;3.43;1.80;;;;;;;19.95;41.67;97761.47;8314010;28;20223;-77
2022/09/03 08:11:04;;;;;;;3.37;1.70;;;;;;;20.40;40.99;97768.13;8314367;28;20230;-77
2022/09/03 08:15:08;;;;;;;2.60;1.80;;;;;;;20.48;40.42;97769.09;8314528;28;20530;-77
2022/09/03 08:19:13;;;;;;;5.27;1.70;;;;;;;20.85;40.46;97767.69;8314244;28;20247;-77
2022/09/03 08:23:16;;;;;;;4.27;1.60;;;;;;;20.69;40.70;97765.56;8314133;28;20451;-77
2022/09/03 08:27:24;;;;;;;10.07;1.80;;;;;;;20.37;40.91;97771.88;8314119;28;20235;-75
2022/09/03 08:31:28;;;;;;;5.20;1.70;;;;;;;20.58;40.51;97760.41;8313990;28;20236;-76
2022/09/03 08:35:33;;;;;;;4.93;1.87;;;;;;;20.16;41.59;97771.91;8314382;28;20229;-78
2022/09/03 08:39:36;;;;;;;3.87;1.70;;;;;;;20.05;42.48;97772.84;8316516;28;20237;-76
2022/09/03 08:43:54;;;;;;;5.67;1.80;;;;;;;20.67;41.64;97778.84;8318938;28;20234;-77
2022/09/03 08:48:02;;;;;;;2.60;1.93;;;;;;;20.57;42.11;97782.44;8318721;28;20450;-77
2022/09/03 08:52:09;;;;;;;5.83;1.90;;;;;;;20.17;42.57;97778.03;8319022;28;20236;-80
2022/09/03 08:56:13;;;;;;;6.57;1.93;;;;;;;21.35;40.73;97769.31;8319678;28;20229;-79
2022/09/03 09:00:17;;;;;;;5.43;1.97;;;;;;;21.99;38.60;97760.72;8319382;28;20474;-79
2022/09/03 09:04:28;;;;;;;4.87;1.90;;;;;;;22.30;37.43;97752.56;8318937;28;20240;-79
2022/09/03 09:08:35;;;;;;;3.13;1.50;;;;;;;23.05;36.91;97739.13;8318963;28;20528;-79
2022/09/03 09:12:45;;;;;;;3.03;1.80;;;;;;;22.22;37.50;97740.06;8318829;28;20234;-79
2022/09/03 09:16:57;;;;;;;6.43;1.70;;;;;;;21.93;38.86;97734.91;8318263;28;20232;-81
2022/09/03 09:21:08;;;;;;;7.40;1.80;;;;;;;22.30;37.68;97736.72;8318425;28;20243;-81
2022/09/03 09:25:15;;;;;;;6.27;1.70;;;;;;;22.18;38.30;97741.34;8318195;28;20239;-79
2022/09/03 09:29:18;;;;;;;3.20;1.80;;;;;;;22.41;37.97;97735.72;8318253;28;20249;-80
2022/09/03 09:33:22;;;;;;;3.73;2.10;;;;;;;22.36;39.47;97725.56;8324166;28;20286;-80
2022/09/03 09:37:25;;;;;;;6.70;1.77;;;;;;;22.96;36.71;97716.25;8319964;28;20531;-79
2022/09/03 09:41:29;;;;;;;3.53;1.60;;;;;;;24.18;35.91;97718.03;8317655;28;20253;-79
2022/09/03 09:45:33;;;;;;;6.43;1.93;;;;;;;23.62;35.45;97717.56;8317389;28;20437;-80
2022/09/03 09:49:37;;;;;;;5.50;2.10;;;;;;;24.91;34.61;97706.78;8317007;28;20225;-80
2022/09/03 09:53:41;;;;;;;3.53;1.70;;;;;;;24.07;34.23;97708.56;8317408;28;20240;-79
2022/09/03 09:57:45;;;;;;;6.00;1.80;;;;;;;24.07;34.24;97715.69;8317465;28;20228;-79
2022/09/03 10:01:48;;;;;;;3.13;1.60;;;;;;;24.68;32.90;97703.94;8316634;28;20504;-80
2022/09/03 10:06:52;;;;;;;5.13;2.00;;;;;;;24.57;33.43;97712.19;8316648;28;20313;-80
2022/09/03 10:10:25;;;;;;;3.47;1.40;;;;;;;25.60;32.44;97711.69;8316576;28;20233;-80
2022/09/03 10:14:34;;;;;;;4.23;1.67;;;;;;;25.22;32.73;97711.38;8316579;28;20242;-80
2022/09/03 10:18:40;;;;;;;3.17;1.80;;;;;;;25.45;32.48;97713.38;8316681;28;20292;-81
2022/09/03 10:22:47;;;;;;;3.27;1.57;;;;;;;25.88;32.52;97704.16;8316367;28;20238;-80
2022/09/03 10:27:00;;;;;;;3.40;1.80;;;;;;;25.00;33.60;97709.41;8316041;28;20248;-79
2022/09/03 10:31:28;;;;;;;4.77;1.80;;;;;;;24.62;33.80;97703.75;8316104;28;20233;-80
2022/09/03 10:35:34;;;;;;;4.80;1.80;;;;;;;25.20;33.21;97700.13;8316095;28;20235;-81
2022/09/03 10:39:49;;;;;;;5.27;1.73;;;;;;;24.13;35.50;97697.34;8315540;28;20547;-79
2022/09/03 10:44:07;;;;;;;3.33;1.50;;;;;;;24.58;34.76;97693.50;8315105;28;20304;-78
2022/09/03 10:48:31;;;;;;;6.40;1.70;;;;;;;25.36;33.46;97696.69;8315650;28;20234;-79
2022/09/03 10:52:40;;;;;;;4.03;1.60;;;;;;;24.91;34.33;97693.53;8315519;28;20430;-81
2022/09/03 10:56:50;;;;;;;3.87;1.80;;;;;;;26.25;32.96;97675.31;8315799;28;20240;-78
2022/09/03 11:00:57;;;;;;;2.97;1.60;;;;;;;25.86;32.49;97692.06;8314913;28;20241;-80
2022/09/03 11:05:06;;;;;;;5.80;2.30;;;;;;;24.29;35.23;97680.66;8314875;28;20271;-81
2022/09/03 11:09:14;;;;;;;3.80;1.63;;;;;;;25.13;33.99;97686.75;8315275;28;20226;-82
2022/09/03 11:13:21;;;;;;;5.10;2.10;;;;;;;25.20;34.79;97692.19;8315322;28;20232;-79
2022/09/03 11:17:25;;;;;;;2.97;1.73;;;;;;;25.08;34.61;97689.06;8315101;28;20368;-83
2022/09/03 11:21:31;;;;;;;5.13;2.07;;;;;;;25.16;34.64;97686.38;8314814;28;20403;-82
2022/09/03 11:25:37;;;;;;;4.97;1.67;;;;;;;24.59;35.55;97673.16;8314688;28;20236;-80
2022/09/03 11:29:44;;;;;;;3.93;1.80;;;;;;;24.76;35.79;97669.53;8314943;28;20228;-81
2022/09/03 11:33:49;;;;;;;3.37;1.90;;;;;;;26.03;34.24;97666.34;8314416;28;20225;-76
2022/09/03 11:37:58;;;;;;;6.70;1.80;;;;;;;25.16;35.57;97670.50;8314369;28;20241;-81
2022/09/03 11:42:05;;;;;;;2.90;1.70;;;;;;;25.85;34.74;97672.66;8314574;28;20232;-82
2022/09/03 11:46:14;;;;;;;3.83;2.10;;;;;;;25.86;34.39;97668.19;8314583;28;20231;-83
2022/09/03 11:50:20;;;;;;;3.03;1.90;;;;;;;26.91;33.14;97660.59;8314758;28;20232;-82
2022/09/03 11:54:26;;;;;;;4.10;1.90;;;;;;;27.21;32.62;97646.56;8314620;28;20231;-83
2022/09/03 11:58:31;;;;;;;4.97;2.03;;;;;;;27.09;33.06;97656.78;8314915;28;20229;-82
2022/09/03 12:02:36;;;;;;;2.17;1.77;;;;;;;27.48;32.85;97653.94;8314704;28;20228;-81
2022/09/03 12:06:58;;;;;;;4.20;2.30;;;;;;;27.05;33.10;97645.69;8314310;28;20301;-86
2022/09/03 12:11:20;;;;;;;2.87;2.30;;;;;;;26.02;35.36;97643.44;8314175;28;20409;-80
2022/09/03 12:15:35;;;;;;;3.73;1.90;;;;;;;26.47;35.56;97640.00;8318650;28;20254;-80
2022/09/03 12:19:41;;;;;;;4.47;2.97;;;;;;;25.36;37.00;97643.69;8320451;28;20324;-78
2022/09/03 12:23:46;;;;;;;4.33;2.80;;;;;;;25.53;37.28;97637.34;8320462;28;20414;-79
2022/09/03 12:27:50;;;;;;;4.40;2.70;;;;;;;26.03;36.88;97622.06;8319626;28;20495;-79
2022/09/03 12:31:55;;;;;;;3.30;2.43;;;;;;;25.91;36.57;97645.50;8319733;28;20235;-80
2022/09/03 12:35:59;;;;;;;5.83;2.53;;;;;;;26.51;34.93;97627.22;8319927;28;20298;-80
2022/09/03 12:40:02;;;;;;;3.53;2.40;;;;;;;26.28;35.72;97627.22;8319863;28;20232;-78
2022/09/03 12:44:10;;;;;;;3.73;2.00;;;;;;;26.32;36.29;97616.06;8319839;28;20230;-80
2022/09/03 12:48:15;;;;;;;3.13;2.03;;;;;;;25.88;36.46;97618.47;8319776;28;20238;-80
2022/09/03 12:52:20;;;;;;;3.43;1.90;;;;;;;25.89;36.86;97625.41;8319301;28;20228;-78
2022/09/03 12:56:23;;;;;;;2.40;2.10;;;;;;;25.52;38.16;97629.53;8319454;28;20251;-79
2022/09/03 13:00:29;;;;;;;3.90;2.10;;;;;;;25.50;38.08;97627.06;8319198;28;20518;-78
2022/09/03 13:04:34;;;;;;;3.60;2.17;;;;;;;25.36;38.46;97630.44;8319180;28;20241;-79
2022/09/03 13:08:46;;;;;;;2.60;2.00;;;;;;;24.93;39.66;97621.84;8319361;28;20240;-79
2022/09/03 13:12:49;;;;;;;2.60;2.00;;;;;;;25.09;39.07;97627.16;8318104;28;20235;-80
2022/09/03 13:17:18;;;;;;;3.37;2.30;;;;;;;24.95;39.92;97631.28;8318857;28;20242;-80
2022/09/03 13:21:32;;;;;;;4.90;2.20;;;;;;;24.74;39.89;97636.28;8318533;28;20222;-79
2022/09/03 13:25:41;;;;;;;3.03;2.00;;;;;;;24.86;39.59;97642.88;8317315;28;20248;-80
2022/09/03 13:29:54;;;;;;;4.20;2.07;;;;;;;24.93;39.54;97638.56;8318442;28;20537;-80
2022/09/03 13:34:02;;;;;;;4.10;2.30;;;;;;;25.10;39.34;97643.84;8318174;28;20225;-81
2022/09/03 13:38:11;;;;;;;5.03;2.30;;;;;;;25.03;39.24;97637.56;8318626;28;20236;-81
2022/09/03 13:42:18;;;;;;;7.00;2.40;;;;;;;24.65;39.76;97632.78;8319117;28;20409;-81
2022/09/03 13:46:23;;;;;;;6.10;2.70;;;;;;;24.47;40.48;97642.69;8318628;28;20641;-80
2022/09/03 13:50:28;;;;;;;4.00;2.33;;;;;;;24.83;39.90;97639.72;8318070;28;20229;-80
2022/09/03 13:54:35;;;;;;;4.97;2.13;;;;;;;24.76;39.89;97637.75;8317306;28;20412;-83
2022/09/03 13:58:56;;;;;;;5.00;2.33;;;;;;;24.67;40.44;97624.69;8316789;28;20231;-80
2022/09/03 14:03:07;;;;;;;8.03;2.40;;;;;;;24.88;40.42;97625.00;8316499;28;20455;-82
2022/09/03 14:07:16;;;;;;;2.73;1.90;;;;;;;24.84;40.46;97625.50;8316733;28;20236;-82
2022/09/03 14:11:24;;;;;;;6.87;2.27;;;;;;;24.92;40.40;97621.03;8316537;28;20420;-80
2022/09/03 14:15:32;;;;;;;2.73;2.30;;;;;;;24.94;40.44;97618.19;8316313;28;20232;-80
2022/09/03 14:19:39;;;;;;;4.00;2.50;;;;;;;24.71;40.83;97621.56;8316352;28;20229;-81
2022/09/03 14:23:46;;;;;;;2.67;2.17;;;;;;;24.75;40.96;97620.22;8316004;28;20400;-80
2022/09/03 14:27:49;;;;;;;4.43;2.10;;;;;;;24.58;41.38;97623.88;8315383;28;20242;-79
2022/09/03 14:32:09;;;;;;;6.83;2.40;;;;;;;24.57;41.73;97619.56;8315943;28;20416;-79
2022/09/03 14:36:19;;;;;;;2.67;1.93;;;;;;;24.54;41.51;97626.00;8315549;28;20232;-80
2022/09/03 14:40:28;;;;;;;3.47;2.40;;;;;;;24.29;42.31;97621.66;8315806;28;20229;-80
2022/09/03 14:44:42;;;;;;;2.43;2.20;;;;;;;24.06;42.83;97616.97;8315586;28;20229;-80
2022/09/03 14:49:21;;;;;;;4.93;2.40;;;;;;;24.11;42.79;97611.22;8315349;28;20558;-80
2022/09/03 14:53:44;;;;;;;5.57;2.43;;;;;;;24.23;42.56;97609.88;8284069;28;20232;-79
2022/09/03 14:58:09;;;;;;;4.10;2.80;;;;;;;24.18;42.68;97612.22;8314817;28;20230;-78
2022/09/03 15:02:51;;;;;;;4.70;2.30;;;;;;;24.11;43.13;97608.56;8315443;28;20229;-81
2022/09/03 15:07:08;;;;;;;4.80;3.00;;;;;;;23.91;43.47;97610.66;8302340;28;20239;-81
2022/09/03 15:11:16;;;;;;;3.20;2.20;;;;;;;23.97;43.46;97610.84;8315131;28;20517;-81
2022/09/03 15:15:23;;;;;;;3.33;2.53;;;;;;;23.93;43.61;97619.25;8315037;28;20344;-79
2022/09/03 15:19:44;;;;;;;5.00;2.40;;;;;;;23.77;43.96;97615.53;8314580;28;20240;-81
2022/09/03 15:23:56;;;;;;;3.07;2.33;;;;;;;23.69;44.26;97614.69;8314620;28;20233;-82
2022/09/03 15:28:07;;;;;;;3.13;2.60;;;;;;;23.30;46.29;97625.72;8314004;28;20236;-80
2022/09/03 15:32:20;;;;;;;4.20;2.73;;;;;;;23.39;46.53;97628.25;8314229;28;20413;-80
2022/09/03 15:36:24;;;;;;;3.77;2.60;;;;;;;23.53;46.10;97631.28;8314127;28;20232;-80
2022/09/03 15:40:29;;;;;;;3.10;2.50;;;;;;;23.45;46.09;97633.91;8314326;28;20417;-81
2022/09/03 15:44:37;;;;;;;3.83;2.50;;;;;;;23.36;46.73;97633.03;8313839;28;20278;-81
2022/09/03 15:48:47;;;;;;;4.80;2.67;;;;;;;23.56;46.15;97634.44;8315427;28;20239;-81
2022/09/03 15:52:58;;;;;;;3.30;3.00;;;;;;;23.54;46.50;97639.06;8320531;28;20226;-80
2022/09/03 15:57:04;;;;;;;6.97;2.80;;;;;;;23.51;46.92;97657.88;8320698;28;20542;-81
2022/09/03 16:01:15;;;;;;;4.00;1.47;;;;;;;22.86;49.84;97681.19;8320019;28;20391;-81
2022/09/03 16:05:23;;;;;;;6.23;1.53;;;;;;;22.43;52.69;97689.72;8319666;28;20232;-81
2022/09/03 16:09:43;;;;;;;3.63;1.30;;;;;;;22.34;53.08;97692.41;8320253;28;20243;-82
2022/09/03 16:14:04;;;;;;;5.30;1.50;;;;;;;22.30;54.45;97694.53;8319893;28;20229;-81
2022/09/03 16:18:10;;;;;;;5.30;1.50;;;;;;;21.99;55.33;97705.34;8319727;28;20261;-80
2022/09/03 16:22:22;;;;;;;4.10;1.30;;;;;;;22.12;56.08;97717.34;8319823;28;20399;-81
2022/09/03 16:26:29;;;;;;;4.03;1.33;;;;;;;22.10;55.16;97728.03;8319601;28;20236;-80
2022/09/03 16:30:43;;;;;;;3.17;1.47;;;;;;;21.83;56.46;97719.16;8319646;28;20238;-81
2022/09/03 16:34:53;;;;;;;3.00;1.53;;;;;;;21.84;56.83;97718.19;8319709;28;20235;-81
2022/09/03 16:39:02;;;;;;;6.07;1.60;;;;;;;21.73;58.44;97709.63;8323627;28;20224;-82
2022/09/03 16:43:10;;;;;;;3.30;1.70;;;;;;;21.68;58.54;97710.06;8323247;28;20246;-81
2022/09/03 16:47:46;;;;;;;3.00;1.50;;;;;;;21.71;58.76;97696.59;8322197;28;20235;-81
2022/09/03 16:51:55;;;;;;;4.40;1.93;;;;;;;21.68;59.13;97691.59;8320590;28;20232;-80
2022/09/03 16:56:15;;;;;;;4.43;2.03;;;;;;;21.17;60.05;97683.16;8320279;28;20236;-80
2022/09/03 17:00:28;;;;;;;4.67;2.20;;;;;;;21.51;60.19;97684.47;8320270;28;20233;-79
2022/09/03 17:04:49;;;;;;;4.73;2.20;;;;;;;21.33;61.37;97690.44;8319231;28;20299;-80
2022/09/03 17:09:01;;;;;;;4.17;2.43;;;;;;;21.44;61.57;97694.75;8319131;28;20236;-79
2022/09/03 17:13:18;;;;;;;5.33;2.60;;;;;;;21.34;61.51;97710.53;8318865;28;20293;-79
2022/09/03 17:17:31;;;;;;;5.87;2.43;;;;;;;21.43;61.52;97714.13;8318708;28;20229;-80
2022/09/03 17:21:45;;;;;;;6.17;2.43;;;;;;;20.76;64.25;97703.53;8318763;28;20550;-80
2022/09/03 17:25:52;;;;;;;6.67;2.67;;;;;;;20.02;67.99;97701.31;8318077;28;20233;-79
2022/09/03 17:30:06;;;;;;;4.73;2.37;;;;;;;20.46;65.79;97705.28;8318369;28;20228;-79
2022/09/03 17:34:19;;;;;;;9.60;2.10;;;;;;;20.75;64.26;97715.03;8318660;28;20235;-79
2022/09/03 17:38:30;;;;;;;5.60;2.37;;;;;;;20.95;63.53;97721.13;8318300;28;20245;-80
2022/09/03 17:42:40;;;;;;;4.93;2.10;;;;;;;21.02;63.69;97731.94;8318454;28;20236;-79
2022/09/03 17:46:47;;;;;;;3.87;1.90;;;;;;;21.04;63.02;97730.00;8318044;28;20572;-80
2022/09/03 17:50:54;;;;;;;4.83;2.17;;;;;;;20.76;64.02;97734.28;8316933;28;20216;-79
2022/09/03 17:55:00;;;;;;;6.30;2.90;;;;;;;20.56;65.37;97734.25;8317835;28;20232;-79
2022/09/03 17:59:08;;;;;;;4.87;2.40;;;;;;;20.93;64.13;97733.59;8317841;28;20228;-80
2022/09/03 18:03:17;;;;;;;5.60;2.60;;;;;;;20.89;64.65;97734.84;8317232;28;20236;-80
2022/09/03 18:07:26;;;;;;;6.80;2.67;;;;;;;20.97;65.32;97739.41;8317229;28;20435;-77
2022/09/03 18:11:34;;;;;;;7.07;3.13;;;;;;;20.93;64.35;97748.56;8316191;28;20231;-78
2022/09/03 18:15:39;;;;;;;6.07;3.30;;;;;;;20.90;63.74;97757.56;8317319;28;20408;-78
2022/09/03 20:11:31;;;;;;;4.30;3.80;;;;;;;20.34;67.61;97847.56;8314162;28;20228;-76
2022/09/03 20:15:44;;;;;;;5.30;3.77;;;;;;;20.49;66.42;97852.31;8313976;28;20335;-76
2022/09/03 20:20:01;;;;;;;6.60;3.50;;;;;;;20.48;66.78;97865.59;8313552;28;20429;-75
2022/09/03 20:24:13;;;;;;;4.40;3.40;;;;;;;20.55;66.41;97881.69;8313624;28;20522;-78
2022/09/03 20:28:27;;;;;;;6.87;3.83;;;;;;;20.47;67.05;97867.41;8313629;28;20434;-77
2022/09/03 20:32:46;;;;;;;7.13;4.43;;;;;;;20.57;67.04;97871.88;8313789;28;20237;-78
2022/09/03 20:36:57;;;;;;;7.07;4.60;;;;;;;20.31;68.77;97878.41;8318211;28;20278;-75
2022/09/03 20:41:12;;;;;;;6.87;4.67;;;;;;;20.38;68.12;97872.63;8319445;28;20247;-75
2022/09/03 20:45:18;;;;;;;6.73;4.60;;;;;;;20.36;67.97;97862.22;8319487;28;20229;-75
2022/09/03 20:49:30;;;;;;;5.77;3.93;;;;;;;20.21;67.81;97867.00;8319527;28;20239;-77
2022/09/03 20:53:53;;;;;;;6.63;3.63;;;;;;;20.40;66.13;97865.44;8319518;28;20229;-76
2022/09/03 20:58:01;;;;;;;6.10;3.77;;;;;;;20.37;66.25;97868.31;8318840;28;20403;-76
2022/09/03 21:02:11;;;;;;;4.10;3.10;;;;;;;20.46;65.79;97872.78;8318984;28;20463;-75
2022/09/03 21:06:23;;;;;;;4.33;3.10;;;;;;;20.39;65.69;97877.75;8318757;28;20240;-77
2022/09/03 21:10:32;;;;;;;5.97;3.47;;;;;;;20.44;65.26;97874.72;8319062;28;20398;-78
2022/09/03 21:14:40;;;;;;;5.03;3.37;;;;;;;20.14;66.28;97876.38;8318917;28;20227;-77
2022/09/03 21:18:52;;;;;;;6.20;2.57;;;;;;;20.23;65.51;97872.97;8318570;28;20542;-77
2022/09/03 21:23:06;;;;;;;6.13;2.83;;;;;;;20.29;64.96;97874.22;8317954;28;20516;-76